This is the latest recevied weather packets stored in our database for station/object XE2G-31. If no packets are shown the sender has not sent any weather packets the latest 10 day(s).
| Time | Temp. | Humidity | Pressure | Rain* | Wind** | Luminosity | Snow |
|---|---|---|---|---|---|---|---|
| 1777683867 | 22.22° C | 79% | 867 hPa | - | - | - | - |
| 1777682921 | 22.22° C | 77% | 867 hPa | - | - | - | - |
| 1777681974 | 22.22° C | 77% | 866 hPa | - | - | - | - |
| 1777681027 | 22.78° C | 76% | 866 hPa | - | - | - | - |
| 1777680080 | 22.78° C | 76% | 866 hPa | - | - | - | - |
| 1777679134 | 23.33° C | 75% | 866 hPa | - | - | - | - |
| 1777678186 | 23.89° C | 73% | 865 hPa | - | - | - | - |
| 1777677240 | 24.44° C | 72% | 865 hPa | - | - | - | - |
| 1777676293 | 25° C | 68% | 865 hPa | - | - | - | - |
| 1777675346 | 25° C | 67% | 865 hPa | - | - | - | - |
| 1777674400 | 25° C | 69% | 865 hPa | - | - | - | - |
| 1777673452 | 25° C | 69% | 865 hPa | - | - | - | - |
| 1777672505 | 24.44° C | 69% | 865 hPa | - | - | - | - |
| 1777671559 | 25.56° C | 68% | 865 hPa | - | - | - | - |
| 1777670612 | 25° C | 69% | 865 hPa | - | - | - | - |
| 1777669665 | 25.56° C | 68% | 865 hPa | - | - | - | - |
| 1777668719 | 25.56° C | 70% | 865 hPa | - | - | - | - |
| 1777667771 | 26.11° C | 66% | 866 hPa | - | - | - | - |
| 1777666824 | 25° C | 70% | 866 hPa | - | - | - | - |
| 1777665877 | 25.56° C | 68% | 866 hPa | - | - | - | - |
| 1777664931 | 26.11° C | 66% | 866 hPa | - | - | - | - |
| 1777663984 | 26.11° C | 67% | 866 hPa | - | - | - | - |
| 1777663037 | 27.78° C | 62% | 866 hPa | - | - | - | - |
| 1777662090 | 27.78° C | 61% | 866 hPa | - | - | - | - |
| 1777661143 | 28.33° C | 59% | 867 hPa | - | - | - | - |
* Rain since midnight (hover to see other rain measurements)
** Current wind speed in m/s (hover to see current wind gust speed)